Powell, Texas
Current Conditions -  °F | °C
As of 11:53 AM on Monday 26 Jan 2015 (Local Time) from KCRS Reporting Station
Clear Clear  
Wind Chill: 60°   Ceiling: Unl
Heat Index: 60°   Visibility: 10mi
Dew Point: 32°   Wind: 9mph
Humidity: 35%   Direction: 230°SW
Pressure: 30.23"   Gusts: NA
Location:  32.12°N, 96.32°W
Report Text: KCRS 261753Z AUTO 23008KT 10SM CLR 16/00 A3023 RMK AO2 SLP237 T01560000 10156 20022 58001
Loading
Personal Weather Stations






























Interactive Weather Map New forecast layout! Learn more

10-Day Weather Forecast

Advertisements
Track Severe Weather on mobile